Time,TemperatureF,DewpointF,PressureIn,WindDirection,WindDirectionDegrees,WindSpeedMPH,WindSpeedGustMPH,Humidity,HourlyPrecipIn,Conditions,Clouds,dailyrainin,SoftwareType,DateUTC
2013-01-29 00:00:00,34.5,33.8,29.85,ENE,60,4.0,4.5,97,0.00,,---,0.00,VWS V14.01,2013-01-29 05:00:00,
2013-01-29 00:01:00,34.5,33.8,29.85,ENE,60,3.6,4.5,97,0.00,,---,0.00,VWS V14.01,2013-01-29 05:01:00,
2013-01-29 00:03:00,34.5,33.8,29.85,ENE,60,0.0,3.6,97,0.00,,---,0.00,VWS V14.01,2013-01-29 05:03:00,
2013-01-29 00:08:00,34.5,33.8,29.85,ENE,60,0.0,0.0,97,0.00,,---,0.00,VWS V14.01,2013-01-29 05:08:00,
2013-01-29 00:13:00,34.5,33.8,29.85,ENE,60,0.0,0.0,97,0.00,,---,0.00,VWS V14.01,2013-01-29 05:13:00,
2013-01-29 00:18:00,34.7,33.9,29.85,ENE,60,0.0,0.0,97,0.00,,---,0.28,VWS V14.01,2013-01-29 05:18:00,
2013-01-29 00:23:00,34.7,33.9,29.85,ENE,60,0.0,0.0,97,0.00,,---,0.00,VWS V14.01,2013-01-29 05:23:00,
2013-01-29 00:28:00,34.7,33.9,29.85,ENE,60,0.0,0.0,97,0.00,,---,0.00,VWS V14.01,2013-01-29 05:28:00,
2013-01-29 00:33:00,34.7,33.9,29.85,ENE,60,0.0,0.0,97,0.00,,---,0.00,VWS V14.01,2013-01-29 05:33:00,
2013-01-29 00:38:00,34.7,33.9,29.85,ENE,60,0.0,0.0,97,0.00,,---,0.00,VWS V14.01,2013-01-29 05:38:00,
2013-01-29 00:43:00,34.7,33.9,29.85,ENE,60,0.0,0.0,97,0.00,,---,0.00,VWS V14.01,2013-01-29 05:43:00,
2013-01-29 00:48:00,34.7,33.9,29.85,ENE,60,0.0,0.0,97,0.00,,---,0.00,VWS V14.01,2013-01-29 05:48:00,
2013-01-29 00:53:00,34.7,33.9,29.85,ENE,60,0.0,0.0,97,0.00,,---,0.00,VWS V14.01,2013-01-29 05:53:00,
2013-01-29 00:58:00,34.9,34.1,29.85,ENE,60,0.0,0.0,97,0.00,,---,0.00,VWS V14.01,2013-01-29 05:58:00,
2013-01-29 01:03:00,35.1,34.3,29.85,ENE,60,0.0,0.0,97,0.00,,---,0.00,VWS V14.01,2013-01-29 06:03:00,
2013-01-29 01:08:00,35.1,34.3,29.85,ENE,60,0.0,0.0,97,0.00,,---,0.00,VWS V14.01,2013-01-29 06:08:00,
2013-01-29 01:13:00,34.9,34.1,29.85,ENE,60,0.0,0.0,97,0.00,,---,0.00,VWS V14.01,2013-01-29 06:13:00,
2013-01-29 01:18:00,34.9,34.1,29.85,ENE,60,0.0,0.0,97,0.00,,---,0.00,VWS V14.01,2013-01-29 06:18:00,
2013-01-29 01:23:00,34.5,33.8,29.85,ENE,60,0.0,0.0,97,0.00,,---,0.00,VWS V14.01,2013-01-29 06:23:00,
2013-01-29 01:28:00,34.5,33.8,29.85,ENE,60,0.0,0.0,97,0.00,,---,0.00,VWS V14.01,2013-01-29 06:28:00,
2013-01-29 01:33:00,34.7,33.9,29.85,ENE,60,0.0,0.0,97,0.00,,---,0.00,VWS V14.01,2013-01-29 06:33:00,
2013-01-29 01:38:00,34.9,34.1,29.85,ENE,60,0.0,0.0,97,0.00,,---,0.00,VWS V14.01,2013-01-29 06:38:00,
2013-01-29 01:43:00,34.7,33.9,29.85,ENE,60,0.0,0.0,97,0.00,,---,0.00,VWS V14.01,2013-01-29 06:43:00,
2013-01-29 01:48:00,34.7,33.9,29.85,ENE,60,0.0,0.0,97,0.00,,---,0.00,VWS V14.01,2013-01-29 06:48:00,
2013-01-29 01:53:00,34.9,34.1,29.85,ENE,60,0.0,0.0,97,0.00,,---,0.00,VWS V14.01,2013-01-29 06:53:00,
2013-01-29 01:58:00,34.5,33.8,29.85,North,2,4.0,4.0,97,0.00,,---,0.00,VWS V14.01,2013-01-29 06:58:00,
2013-01-29 02:03:00,34.7,33.9,29.85,NW,326,4.5,4.5,97,0.00,,---,0.00,VWS V14.01,2013-01-29 07:03:00,
2013-01-29 02:08:00,34.9,34.1,29.85,NW,326,0.0,0.0,97,0.00,,---,0.00,VWS V14.01,2013-01-29 07:08:00,
2013-01-29 02:13:00,34.7,33.9,29.85,NW,326,0.0,0.0,97,0.00,,---,0.00,VWS V14.01,2013-01-29 07:13:00,
2013-01-29 02:18:00,34.9,34.1,29.85,NW,326,2.7,2.7,97,0.00,,---,0.00,VWS V14.01,2013-01-29 07:18:00,
2013-01-29 02:23:00,34.7,33.9,29.85,NW,326,0.0,0.0,97,0.00,,---,0.00,VWS V14.01,2013-01-29 07:23:00,
2013-01-29 02:28:00,34.5,33.8,29.88,NNW,330,4.0,4.0,97,0.00,,---,0.00,VWS V14.01,2013-01-29 07:28:00,
2013-01-29 02:33:00,34.5,33.8,29.88,NW,318,4.0,5.4,97,0.00,,---,0.00,VWS V14.01,2013-01-29 07:33:00,
2013-01-29 02:38:00,34.5,33.8,29.88,NW,317,0.0,2.7,97,0.00,,---,0.00,VWS V14.01,2013-01-29 07:38:00,
2013-01-29 02:43:00,34.5,33.8,29.88,NW,317,0.0,3.1,97,0.00,,---,0.00,VWS V14.01,2013-01-29 07:43:00,
2013-01-29 02:48:00,34.5,33.8,29.88,NW,320,4.5,4.9,97,0.00,,---,0.00,VWS V14.01,2013-01-29 07:48:00,
2013-01-29 02:53:00,34.5,33.8,29.88,NW,320,3.1,4.0,97,0.00,,---,0.00,VWS V14.01,2013-01-29 07:53:00,
2013-01-29 02:58:00,34.5,33.8,29.85,NW,319,3.6,4.5,97,0.00,,---,0.00,VWS V14.01,2013-01-29 07:58:00,
2013-01-29 03:03:00,34.5,33.8,29.85,NW,319,0.0,0.0,97,0.00,,---,0.00,VWS V14.01,2013-01-29 08:03:00,
2013-01-29 03:08:00,34.7,33.9,29.85,NW,319,0.0,0.0,97,0.00,,---,0.00,VWS V14.01,2013-01-29 08:08:00,
2013-01-29 03:13:00,34.7,33.9,29.88,NW,319,0.0,0.0,97,0.00,,---,0.00,VWS V14.01,2013-01-29 08:13:00,
2013-01-29 03:18:00,34.7,33.9,29.88,NW,319,0.0,0.0,97,0.00,,---,0.00,VWS V14.01,2013-01-29 08:18:00,
2013-01-29 03:22:00,34.7,33.9,29.88,NW,318,2.7,3.6,97,0.00,,---,0.00,VWS V14.01,2013-01-29 08:22:00,
2013-01-29 03:27:00,34.9,34.1,29.88,NW,314,3.6,4.5,97,0.00,,---,0.00,VWS V14.01,2013-01-29 08:27:00,
2013-01-29 03:33:00,34.9,34.1,29.88,NW,315,0.0,0.0,97,0.00,,---,0.00,VWS V14.01,2013-01-29 08:33:00,
2013-01-29 03:37:00,34.9,34.1,29.88,WNW,292,2.7,3.6,97,0.00,,---,0.00,VWS V14.01,2013-01-29 08:37:00,
2013-01-29 03:42:00,34.9,34.1,29.88,WNW,293,4.0,4.9,97,0.00,,---,0.00,VWS V14.01,2013-01-29 08:42:00,
2013-01-29 03:47:00,34.9,34.1,29.88,WNW,303,4.5,4.5,97,0.00,,---,0.00,VWS V14.01,2013-01-29 08:47:00,
2013-01-29 03:52:00,34.7,33.9,29.88,NW,313,0.0,4.9,97,0.00,,---,0.00,VWS V14.01,2013-01-29 08:52:00,
2013-01-29 03:57:00,34.7,33.9,29.88,NW,309,4.0,5.4,97,0.00,,---,0.00,VWS V14.01,2013-01-29 08:57:00,
2013-01-29 04:02:00,34.7,33.9,29.88,NW,308,3.1,4.5,97,0.00,,---,0.00,VWS V14.01,2013-01-29 09:02:00,
2013-01-29 04:07:00,34.9,34.1,29.88,NW,309,4.0,5.4,97,0.00,,---,0.00,VWS V14.01,2013-01-29 09:07:00,
2013-01-29 04:12:00,34.9,34.1,29.88,NW,310,4.0,4.5,97,0.00,,---,0.00,VWS V14.01,2013-01-29 09:12:00,
2013-01-29 04:17:00,34.9,34.1,29.88,NW,305,4.5,4.5,97,0.00,,---,0.00,VWS V14.01,2013-01-29 09:17:00,
2013-01-29 04:22:00,34.9,34.1,29.88,NNW,335,0.0,4.0,97,0.00,,---,0.00,VWS V14.01,2013-01-29 09:22:00,
2013-01-29 04:27:00,35.1,34.3,29.88,NW,311,4.5,4.9,97,0.00,,---,0.00,VWS V14.01,2013-01-29 09:27:00,
2013-01-29 04:32:00,35.2,34.5,29.88,WNW,303,4.0,5.4,97,0.00,,---,0.00,VWS V14.01,2013-01-29 09:32:00,
2013-01-29 04:37:00,35.2,34.5,29.88,NW,322,2.7,4.9,97,0.00,,---,0.00,VWS V14.01,2013-01-29 09:37:00,
2013-01-29 04:42:00,35.2,34.5,29.88,NW,310,2.7,4.5,97,0.00,,---,0.00,VWS V14.01,2013-01-29 09:42:00,
2013-01-29 04:47:00,35.4,34.7,29.88,WNW,297,3.1,4.0,97,0.00,,---,0.00,VWS V14.01,2013-01-29 09:47:00,
2013-01-29 04:52:00,35.4,34.7,29.88,WNW,296,0.0,0.0,97,0.00,,---,0.00,VWS V14.01,2013-01-29 09:52:00,
2013-01-29 04:57:00,35.4,34.7,29.88,WNW,297,0.0,0.0,97,0.00,,---,0.00,VWS V14.01,2013-01-29 09:57:00,
2013-01-29 05:02:00,35.4,34.7,29.88,WNW,297,0.0,0.0,97,0.00,,---,0.00,VWS V14.01,2013-01-29 10:02:00,
2013-01-29 05:07:00,35.4,34.7,29.88,WNW,297,0.0,3.1,97,0.00,,---,0.00,VWS V14.01,2013-01-29 10:07:00,
2013-01-29 05:12:00,35.4,34.7,29.88,WNW,301,3.6,4.5,97,0.00,,---,0.00,VWS V14.01,2013-01-29 10:12:00,
2013-01-29 05:17:00,35.2,34.5,29.88,WNW,302,3.6,3.6,97,0.00,,---,0.00,VWS V14.01,2013-01-29 10:17:00,
2013-01-29 05:22:00,35.2,34.5,29.88,NW,315,5.8,5.8,97,0.00,,---,0.00,VWS V14.01,2013-01-29 10:22:00,
2013-01-29 05:27:00,35.4,34.7,29.91,WNW,300,6.3,8.7,97,0.00,,---,0.00,VWS V14.01,2013-01-29 10:27:00,
2013-01-29 05:32:00,35.2,34.5,29.91,NW,313,4.9,6.3,97,0.00,,---,0.00,VWS V14.01,2013-01-29 10:32:00,
2013-01-29 05:37:00,35.2,34.5,29.91,WNW,296,7.4,7.4,97,0.00,,---,0.00,VWS V14.01,2013-01-29 10:37:00,
2013-01-29 05:42:00,35.1,34.3,29.91,NW,304,4.5,6.9,97,0.00,,---,0.00,VWS V14.01,2013-01-29 10:42:00,
2013-01-29 05:47:00,35.1,34.3,29.91,NW,312,5.8,8.3,97,0.00,,---,0.00,VWS V14.01,2013-01-29 10:47:00,
2013-01-29 05:52:00,35.1,34.3,29.91,NW,307,9.2,10.1,97,0.00,,---,0.00,VWS V14.01,2013-01-29 10:52:00,
2013-01-29 05:57:00,35.1,34.3,29.91,NW,311,6.7,11.6,97,0.00,,---,0.00,VWS V14.01,2013-01-29 10:57:00,
2013-01-29 06:02:00,35.1,34.3,29.91,WNW,286,6.7,8.3,97,0.00,,---,0.00,VWS V14.01,2013-01-29 11:02:00,
2013-01-29 06:07:00,35.1,34.3,29.91,West,278,3.1,3.6,97,0.00,,---,0.00,VWS V14.01,2013-01-29 11:07:00,
2013-01-29 06:12:00,35.1,34.3,29.91,West,281,5.4,5.8,97,0.00,,---,0.00,VWS V14.01,2013-01-29 11:12:00,
2013-01-29 06:17:00,35.1,34.3,29.91,WNW,297,5.4,6.9,97,0.00,,---,0.00,VWS V14.01,2013-01-29 11:17:00,
2013-01-29 06:22:00,34.9,34.1,29.91,WNW,284,4.0,4.5,97,0.00,,---,0.00,VWS V14.01,2013-01-29 11:22:00,
2013-01-29 06:27:00,34.9,34.1,29.91,WNW,302,4.9,6.3,97,0.00,,---,0.00,VWS V14.01,2013-01-29 11:27:00,
2013-01-29 06:32:00,34.9,34.1,29.91,WNW,297,4.5,6.3,97,0.00,,---,0.00,VWS V14.01,2013-01-29 11:32:00,
2013-01-29 06:37:00,34.9,34.1,29.91,West,276,5.8,6.9,97,0.00,,---,0.00,VWS V14.01,2013-01-29 11:37:00,
2013-01-29 06:42:00,34.7,33.9,29.91,WNW,300,6.9,7.4,97,0.00,,---,0.00,VWS V14.01,2013-01-29 11:42:00,
2013-01-29 06:47:00,34.7,33.9,29.91,WNW,301,5.4,8.3,97,0.00,,---,0.00,VWS V14.01,2013-01-29 11:47:00,
2013-01-29 06:52:00,34.7,33.9,29.91,WNW,283,7.4,8.3,97,0.00,,---,0.00,VWS V14.01,2013-01-29 11:52:00,
2013-01-29 06:57:00,34.7,33.9,29.94,WNW,287,6.9,7.8,97,0.00,,---,0.00,VWS V14.01,2013-01-29 11:57:00,
2013-01-29 07:02:00,34.7,33.9,29.94,WNW,287,4.0,6.3,97,0.00,,---,0.00,VWS V14.01,2013-01-29 12:02:00,
2013-01-29 07:07:00,34.7,33.9,29.94,WNW,303,5.4,5.8,97,0.00,,---,0.00,VWS V14.01,2013-01-29 12:07:00,
2013-01-29 07:12:00,34.9,34.1,29.94,WNW,300,5.8,6.7,97,0.00,,---,0.00,VWS V14.01,2013-01-29 12:12:00,
2013-01-29 07:17:00,34.9,34.1,29.94,WNW,296,6.9,7.8,97,0.00,,---,0.00,VWS V14.01,2013-01-29 12:17:00,
2013-01-29 07:22:00,34.7,33.9,29.94,WNW,295,10.5,11.0,97,0.00,,---,0.00,VWS V14.01,2013-01-29 12:22:00,
2013-01-29 07:27:00,34.9,34.1,29.94,WNW,299,8.3,10.5,97,0.00,,---,0.00,VWS V14.01,2013-01-29 12:27:00,
2013-01-29 07:32:00,34.7,33.9,29.94,WNW,293,6.9,8.3,97,0.00,,---,0.00,VWS V14.01,2013-01-29 12:32:00,
2013-01-29 07:37:00,34.7,33.9,29.94,WNW,287,10.5,11.0,97,0.00,,---,0.00,VWS V14.01,2013-01-29 12:37:00,
2013-01-29 07:42:00,34.7,33.9,29.97,NW,305,8.7,10.1,97,0.00,,---,0.00,VWS V14.01,2013-01-29 12:42:00,
2013-01-29 07:47:00,34.7,33.9,29.97,WNW,299,12.1,12.1,97,0.00,,---,0.00,VWS V14.01,2013-01-29 12:47:00,
2013-01-29 07:52:00,34.9,34.1,29.97,WNW,297,5.8,7.4,97,0.00,,---,0.00,VWS V14.01,2013-01-29 12:52:00,
2013-01-29 07:57:00,34.9,34.1,29.97,WNW,286,7.8,7.8,97,0.00,,---,0.00,VWS V14.01,2013-01-29 12:57:00,
2013-01-29 08:02:00,34.9,34.1,29.97,WNW,298,6.7,8.7,97,0.00,,---,0.00,VWS V14.01,2013-01-29 13:02:00,
2013-01-29 08:07:00,34.9,34.1,29.97,WNW,295,9.2,11.0,97,0.00,,---,0.00,VWS V14.01,2013-01-29 13:07:00,
2013-01-29 08:12:00,35.1,34.3,29.97,NW,304,8.3,8.7,97,0.00,,---,0.00,VWS V14.01,2013-01-29 13:12:00,
2013-01-29 08:17:00,35.1,34.3,29.97,WNW,288,6.9,9.2,97,0.00,,---,0.00,VWS V14.01,2013-01-29 13:17:00,
2013-01-29 08:22:00,35.1,34.3,29.97,WNW,299,6.3,8.7,97,0.00,,---,0.00,VWS V14.01,2013-01-29 13:22:00,
2013-01-29 08:27:00,35.1,34.3,29.97,NW,312,7.4,11.2,97,0.00,,---,0.00,VWS V14.01,2013-01-29 13:27:00,
2013-01-29 08:32:00,35.1,34.3,29.97,WNW,296,4.5,6.7,97,0.00,,---,0.28,VWS V14.01,2013-01-29 13:32:00,
2013-01-29 08:37:00,35.1,34.3,29.97,WNW,298,7.8,7.8,97,0.00,,---,0.00,VWS V14.01,2013-01-29 13:37:00,
2013-01-29 08:42:00,35.2,34.5,29.97,WNW,284,6.7,6.7,97,0.00,,---,0.00,VWS V14.01,2013-01-29 13:42:00,
2013-01-29 08:47:00,35.2,34.5,29.97,WNW,290,6.3,6.7,97,0.00,,---,0.00,VWS V14.01,2013-01-29 13:47:00,
2013-01-29 08:52:00,35.4,34.7,29.97,WNW,290,6.3,6.3,97,0.00,,---,0.00,VWS V14.01,2013-01-29 13:52:00,
2013-01-29 08:57:00,35.2,34.5,30.00,WNW,303,9.2,9.6,97,0.00,,---,0.00,VWS V14.01,2013-01-29 13:57:00,
2013-01-29 09:02:00,35.4,34.7,30.00,WNW,298,6.9,6.9,97,0.00,,---,0.00,VWS V14.01,2013-01-29 14:02:00,
2013-01-29 09:07:00,35.4,34.7,30.00,NW,311,8.3,8.3,97,0.00,,---,0.00,VWS V14.01,2013-01-29 14:07:00,
2013-01-29 09:12:00,35.6,34.8,30.00,WNW,288,9.6,9.6,97,0.00,,---,0.00,VWS V14.01,2013-01-29 14:12:00,
2013-01-29 09:17:00,35.4,34.7,30.00,NNW,334,6.9,8.7,97,0.00,,---,0.00,VWS V14.01,2013-01-29 14:17:00,
2013-01-29 09:22:00,35.4,34.7,30.00,NW,312,6.9,7.8,97,0.00,,---,0.00,VWS V14.01,2013-01-29 14:22:00,
2013-01-29 09:27:00,35.6,34.8,30.00,NW,315,9.2,10.1,97,0.00,,---,0.00,VWS V14.01,2013-01-29 14:27:00,
2013-01-29 09:32:00,35.6,34.8,30.00,WNW,301,7.8,8.7,97,0.00,,---,0.00,VWS V14.01,2013-01-29 14:32:00,
2013-01-29 09:37:00,35.8,35.0,30.00,WNW,302,9.2,9.2,97,0.00,,---,0.00,VWS V14.01,2013-01-29 14:37:00,
2013-01-29 09:42:00,35.8,35.0,30.00,WNW,301,9.2,9.2,97,0.00,,---,0.00,VWS V14.01,2013-01-29 14:42:00,
2013-01-29 09:47:00,35.8,35.0,30.00,West,279,5.8,5.8,97,0.00,,---,0.00,VWS V14.01,2013-01-29 14:47:00,
2013-01-29 09:52:00,35.6,34.8,30.00,NW,323,6.7,6.7,97,0.00,,---,0.00,VWS V14.01,2013-01-29 14:52:00,
2013-01-29 09:57:00,35.8,35.0,30.00,NW,314,4.5,4.5,97,0.00,,---,0.00,VWS V14.01,2013-01-29 14:57:00,
2013-01-29 10:02:00,35.8,35.0,30.00,NNW,330,6.9,7.4,97,0.00,,---,0.00,VWS V14.01,2013-01-29 15:02:00,
2013-01-29 10:07:00,35.8,35.0,30.00,WNW,289,11.0,11.0,97,0.00,,---,0.00,VWS V14.01,2013-01-29 15:07:00,
2013-01-29 10:12:00,35.6,34.8,30.00,WNW,302,7.8,7.8,97,0.00,,---,0.00,VWS V14.01,2013-01-29 15:12:00,
2013-01-29 10:17:00,35.8,35.0,30.00,West,274,9.2,9.2,97,0.00,,---,0.00,VWS V14.01,2013-01-29 15:17:00,
2013-01-29 10:22:00,35.8,34.8,30.00,NW,305,10.1,10.5,96,0.00,,---,0.00,VWS V14.01,2013-01-29 15:22:00,
2013-01-29 10:27:00,36.0,34.9,30.00,WNW,303,8.7,9.6,96,0.00,,---,0.00,VWS V14.01,2013-01-29 15:27:00,
2013-01-29 10:32:00,36.1,35.1,30.00,NW,321,8.3,10.5,96,0.00,,---,0.00,VWS V14.01,2013-01-29 15:32:00,
2013-01-29 10:37:00,36.0,34.7,30.00,WNW,295,6.9,9.6,95,0.00,,---,0.00,VWS V14.01,2013-01-29 15:37:00,
2013-01-29 10:42:00,35.8,34.5,30.00,NW,309,9.2,9.2,95,0.00,,---,0.00,VWS V14.01,2013-01-29 15:42:00,
2013-01-29 10:47:00,35.8,34.5,30.00,WNW,295,11.6,13.0,95,0.00,,---,0.00,VWS V14.01,2013-01-29 15:47:00,
2013-01-29 10:52:00,35.8,34.5,30.00,NW,323,8.3,8.7,95,0.00,,---,0.00,VWS V14.01,2013-01-29 15:52:00,
2013-01-29 10:57:00,35.8,34.5,30.00,WNW,297,9.6,11.2,95,0.00,,---,0.00,VWS V14.01,2013-01-29 15:57:00,
2013-01-29 11:01:00,36.0,34.7,30.00,WNW,301,7.4,9.6,95,0.00,,---,0.00,VWS V14.01,2013-01-29 16:01:00,
2013-01-29 11:06:00,36.0,34.7,30.00,WNW,286,6.9,8.3,95,0.00,,---,0.00,VWS V14.01,2013-01-29 16:06:00,
2013-01-29 11:11:00,36.1,34.6,30.00,WNW,303,5.8,8.3,94,0.00,,---,0.00,VWS V14.01,2013-01-29 16:11:00,
2013-01-29 11:16:00,35.8,34.2,30.00,NW,322,7.4,9.6,94,0.00,,---,0.00,VWS V14.01,2013-01-29 16:16:00,
2013-01-29 11:21:00,35.8,34.2,30.00,WNW,303,6.9,9.6,94,0.00,,---,0.00,VWS V14.01,2013-01-29 16:21:00,
2013-01-29 11:26:00,35.8,34.2,30.03,NW,313,6.9,9.2,94,0.00,,---,0.00,VWS V14.01,2013-01-29 16:26:00,
2013-01-29 11:31:00,35.8,34.2,30.03,WNW,303,6.7,6.7,94,0.00,,---,0.00,VWS V14.01,2013-01-29 16:31:00,
2013-01-29 11:36:00,35.8,34.2,30.03,NW,315,4.9,8.7,94,0.00,,---,0.00,VWS V14.01,2013-01-29 16:36:00,
2013-01-29 11:41:00,35.8,34.2,30.00,NW,316,8.7,10.5,94,0.00,,---,0.00,VWS V14.01,2013-01-29 16:41:00,
2013-01-29 11:46:00,35.8,34.5,30.00,WNW,289,6.7,9.6,95,0.00,,---,0.00,VWS V14.01,2013-01-29 16:46:00,
2013-01-29 11:51:00,36.0,34.7,30.00,WNW,290,7.4,8.3,95,0.00,,---,0.00,VWS V14.01,2013-01-29 16:51:00,
2013-01-29 11:56:00,36.3,35.3,30.00,NW,309,4.0,4.9,96,0.00,,---,0.00,VWS V14.01,2013-01-29 16:56:00,
2013-01-29 12:01:00,36.3,35.3,30.00,NW,306,7.4,10.1,96,0.00,,---,0.00,VWS V14.01,2013-01-29 17:01:00,
2013-01-29 12:06:00,36.1,35.1,30.00,NW,314,4.5,5.4,96,0.00,,---,0.00,VWS V14.01,2013-01-29 17:06:00,
2013-01-29 12:11:00,36.3,35.3,30.03,WNW,294,5.8,7.4,96,0.00,,---,0.00,VWS V14.01,2013-01-29 17:11:00,
2013-01-29 12:16:00,36.3,35.5,30.03,West,277,5.4,8.3,97,0.00,,---,0.00,VWS V14.01,2013-01-29 17:16:00,
2013-01-29 12:21:00,36.5,35.7,30.03,West,279,6.9,8.7,97,0.00,,---,0.00,VWS V14.01,2013-01-29 17:21:00,
2013-01-29 12:26:00,36.3,35.5,30.00,NW,312,4.9,6.3,97,0.00,,---,0.00,VWS V14.01,2013-01-29 17:26:00,
2013-01-29 12:31:00,36.3,35.5,30.00,NW,312,6.9,9.2,97,0.00,,---,0.00,VWS V14.01,2013-01-29 17:31:00,
2013-01-29 12:36:00,36.3,35.5,30.00,WNW,300,5.8,8.3,97,0.00,,---,0.00,VWS V14.01,2013-01-29 17:36:00,
2013-01-29 12:41:00,36.3,35.5,30.00,WNW,284,5.4,7.4,97,0.00,,---,0.00,VWS V14.01,2013-01-29 17:41:00,
2013-01-29 12:46:00,36.5,35.7,30.00,NW,310,6.3,8.3,97,0.00,,---,0.00,VWS V14.01,2013-01-29 17:46:00,
2013-01-29 12:51:00,36.5,35.7,30.00,WNW,297,6.3,6.3,97,0.00,,---,0.00,VWS V14.01,2013-01-29 17:51:00,
2013-01-29 12:56:00,36.5,35.7,30.00,NNW,332,6.9,7.4,97,0.00,,---,0.00,VWS V14.01,2013-01-29 17:56:00,
2013-01-29 13:01:00,36.9,36.1,30.00,NW,311,4.0,6.7,97,0.00,,---,0.00,VWS V14.01,2013-01-29 18:01:00,
2013-01-29 13:06:00,36.9,36.1,30.00,WNW,284,8.7,8.7,97,0.00,,---,0.00,VWS V14.01,2013-01-29 18:06:00,
2013-01-29 13:11:00,37.0,36.3,30.00,NW,308,6.7,10.1,97,0.00,,---,0.00,VWS V14.01,2013-01-29 18:11:00,
2013-01-29 13:16:00,37.0,36.3,30.00,WNW,299,3.1,4.5,97,0.00,,---,0.00,VWS V14.01,2013-01-29 18:16:00,
2013-01-29 13:21:00,37.0,36.3,30.00,WNW,288,6.3,9.6,97,0.00,,---,0.00,VWS V14.01,2013-01-29 18:21:00,
2013-01-29 13:26:00,37.2,36.5,30.00,NNW,334,3.6,8.7,97,0.00,,---,0.00,VWS V14.01,2013-01-29 18:26:00,
2013-01-29 13:31:00,37.4,36.6,30.00,WNW,303,4.9,7.4,97,0.00,,---,0.00,VWS V14.01,2013-01-29 18:31:00,
2013-01-29 13:36:00,37.6,36.8,30.00,WNW,302,5.8,6.9,97,0.00,,---,0.00,VWS V14.01,2013-01-29 18:36:00,
2013-01-29 13:41:00,37.6,36.8,30.00,NNW,341,4.9,6.3,97,0.00,,---,0.00,VWS V14.01,2013-01-29 18:41:00,
2013-01-29 13:46:00,37.6,36.8,30.00,NW,322,4.9,5.4,97,0.00,,---,0.00,VWS V14.01,2013-01-29 18:46:00,
2013-01-29 13:51:00,37.8,37.0,30.00,NW,311,4.5,6.7,97,0.00,,---,0.00,VWS V14.01,2013-01-29 18:51:00,
2013-01-29 13:56:00,37.8,37.0,30.00,NW,307,5.8,6.3,97,0.00,,---,0.00,VWS V14.01,2013-01-29 18:56:00,
2013-01-29 14:01:00,37.9,37.2,30.00,NW,313,6.9,6.9,97,0.00,,---,0.00,VWS V14.01,2013-01-29 19:01:00,
2013-01-29 14:06:00,38.1,37.3,30.00,WNW,293,4.9,6.3,97,0.00,,---,0.00,VWS V14.01,2013-01-29 19:06:00,
2013-01-29 14:11:00,38.3,37.5,30.00,WNW,296,4.9,5.4,97,0.00,,---,0.00,VWS V14.01,2013-01-29 19:11:00,
2013-01-29 14:16:00,37.9,37.2,30.00,NW,310,6.7,8.3,97,0.00,,---,0.00,VWS V14.01,2013-01-29 19:16:00,
2013-01-29 14:21:00,37.9,37.2,30.00,WNW,293,6.3,7.4,97,0.00,,---,0.00,VWS V14.01,2013-01-29 19:21:00,
2013-01-29 14:26:00,37.9,37.2,30.00,WNW,289,3.1,4.9,97,0.00,,---,0.00,VWS V14.01,2013-01-29 19:26:00,
2013-01-29 14:31:00,37.9,37.2,30.00,WNW,300,4.5,5.8,97,0.00,,---,0.00,VWS V14.01,2013-01-29 19:31:00,
2013-01-29 14:36:00,37.8,37.0,30.00,WNW,289,6.3,7.4,97,0.00,,---,0.00,VWS V14.01,2013-01-29 19:36:00,
2013-01-29 14:41:00,37.6,36.8,30.03,West,269,7.8,8.7,97,0.00,,---,0.00,VWS V14.01,2013-01-29 19:41:00,
2013-01-29 14:46:00,37.8,37.0,30.03,WNW,289,4.9,5.4,97,0.00,,---,0.00,VWS V14.01,2013-01-29 19:46:00,
2013-01-29 14:51:00,37.6,36.8,30.03,WNW,298,6.3,6.7,97,0.00,,---,0.00,VWS V14.01,2013-01-29 19:51:00,
2013-01-29 14:56:00,37.4,36.6,30.03,WNW,295,4.9,5.8,97,0.00,,---,0.00,VWS V14.01,2013-01-29 19:56:00,
2013-01-29 14:57:00,37.4,36.6,30.03,WNW,300,4.9,4.9,97,0.00,,---,0.00,VWS V14.01,2013-01-29 19:57:00,
2013-01-29 15:02:00,37.4,36.6,30.03,WNW,287,4.9,5.4,97,0.00,,---,0.00,VWS V14.01,2013-01-29 20:02:00,
2013-01-29 15:07:00,37.4,36.6,30.03,WNW,296,4.5,4.5,97,0.00,,---,0.00,VWS V14.01,2013-01-29 20:07:00,
2013-01-29 15:12:00,37.4,36.6,30.03,WNW,301,0.0,3.1,97,0.00,,---,0.00,VWS V14.01,2013-01-29 20:12:00,
2013-01-29 15:17:00,37.2,36.5,30.03,NW,317,4.0,4.5,97,0.00,,---,0.00,VWS V14.01,2013-01-29 20:17:00,
2013-01-29 15:22:00,37.2,36.5,30.03,WNW,294,4.9,4.9,97,0.00,,---,0.00,VWS V14.01,2013-01-29 20:22:00,
2013-01-29 15:27:00,37.4,36.6,30.03,WNW,286,4.0,4.9,97,0.00,,---,0.00,VWS V14.01,2013-01-29 20:27:00,
2013-01-29 15:32:00,37.2,36.5,30.03,NW,307,5.4,5.4,97,0.00,,---,0.00,VWS V14.01,2013-01-29 20:32:00,
2013-01-29 15:37:00,37.2,36.5,30.03,NW,317,5.8,6.7,97,0.00,,---,0.00,VWS V14.01,2013-01-29 20:37:00,
2013-01-29 15:42:00,37.0,36.3,30.03,NW,309,0.0,4.9,97,0.00,,---,0.00,VWS V14.01,2013-01-29 20:42:00,
2013-01-29 15:47:00,37.0,36.3,30.03,NNW,327,4.0,4.5,97,0.00,,---,0.00,VWS V14.01,2013-01-29 20:47:00,
2013-01-29 15:52:00,37.0,36.3,30.03,WNW,299,4.9,4.9,97,0.00,,---,0.00,VWS V14.01,2013-01-29 20:52:00,
2013-01-29 15:57:00,37.0,36.3,30.03,NW,313,2.7,3.1,97,0.00,,---,0.00,VWS V14.01,2013-01-29 20:57:00,
2013-01-29 16:02:00,37.0,36.3,30.03,NW,323,3.1,3.1,97,0.00,,---,0.00,VWS V14.01,2013-01-29 21:02:00,
2013-01-29 16:07:00,36.9,36.1,30.03,NNW,346,4.5,4.5,97,0.00,,---,0.00,VWS V14.01,2013-01-29 21:07:00,
2013-01-29 16:12:00,36.9,36.1,30.03,NNW,342,4.0,4.0,97,0.00,,---,0.00,VWS V14.01,2013-01-29 21:12:00,
2013-01-29 16:17:00,36.9,36.1,30.03,NNW,335,0.0,0.0,97,0.00,,---,0.00,VWS V14.01,2013-01-29 21:17:00,
2013-01-29 16:22:00,36.9,36.1,30.03,NNW,336,3.1,3.1,97,0.00,,---,0.00,VWS V14.01,2013-01-29 21:22:00,
2013-01-29 16:27:00,36.9,36.1,30.03,NNW,340,3.1,3.1,97,0.00,,---,0.00,VWS V14.01,2013-01-29 21:27:00,
2013-01-29 16:32:00,36.7,35.9,30.03,NW,325,2.7,3.6,97,0.00,,---,0.00,VWS V14.01,2013-01-29 21:32:00,
2013-01-29 16:37:00,36.7,35.9,30.03,NW,325,0.0,0.0,97,0.00,,---,0.00,VWS V14.01,2013-01-29 21:37:00,
2013-01-29 16:42:00,36.7,35.9,30.03,NW,324,0.0,0.0,97,0.00,,---,0.00,VWS V14.01,2013-01-29 21:42:00,
2013-01-29 16:47:00,36.7,35.9,30.03,NW,324,0.0,0.0,97,0.00,,---,0.00,VWS V14.01,2013-01-29 21:47:00,
2013-01-29 16:52:00,36.7,35.9,30.03,NW,325,0.0,0.0,97,0.00,,---,0.00,VWS V14.01,2013-01-29 21:52:00,
2013-01-29 16:57:00,36.7,35.9,30.03,NW,325,0.0,0.0,97,0.00,,---,0.00,VWS V14.01,2013-01-29 21:57:00,
2013-01-29 17:02:00,36.5,35.7,30.03,NW,325,0.0,0.0,97,0.00,,---,0.00,VWS V14.01,2013-01-29 22:02:00,
2013-01-29 17:07:00,36.5,35.7,30.03,NW,325,0.0,0.0,97,0.00,,---,0.00,VWS V14.01,2013-01-29 22:07:00,
2013-01-29 17:12:00,36.7,35.9,30.03,NW,325,0.0,0.0,97,0.00,,---,0.00,VWS V14.01,2013-01-29 22:12:00,
2013-01-29 17:17:00,36.7,35.9,30.03,NW,325,0.0,0.0,97,0.00,,---,0.00,VWS V14.01,2013-01-29 22:17:00,
2013-01-29 17:22:00,36.9,36.1,30.03,NW,325,0.0,0.0,97,0.00,,---,0.00,VWS V14.01,2013-01-29 22:22:00,
2013-01-29 17:27:00,36.9,36.1,30.03,NW,324,0.0,3.6,97,0.00,,---,0.00,VWS V14.01,2013-01-29 22:27:00,
2013-01-29 17:32:00,36.9,36.1,30.03,NW,324,0.0,0.0,97,0.00,,---,0.00,VWS V14.01,2013-01-29 22:32:00,
2013-01-29 17:37:00,36.7,35.9,30.03,NW,325,0.0,0.0,97,0.00,,---,0.00,VWS V14.01,2013-01-29 22:37:00,
2013-01-29 17:42:00,36.7,35.9,30.03,NW,324,0.0,0.0,97,0.00,,---,0.00,VWS V14.01,2013-01-29 22:42:00,
2013-01-29 17:47:00,36.5,35.7,30.03,NW,325,0.0,0.0,97,0.00,,---,0.00,VWS V14.01,2013-01-29 22:47:00,
2013-01-29 17:51:00,36.5,35.7,30.03,NW,324,0.0,0.0,97,0.00,,---,0.00,VWS V14.01,2013-01-29 22:51:00,
2013-01-29 17:56:00,36.5,35.7,30.03,NW,325,0.0,0.0,97,0.00,,---,0.00,VWS V14.01,2013-01-29 22:56:00,
2013-01-29 18:01:00,36.3,35.5,30.03,NW,325,0.0,0.0,97,0.00,,---,0.00,VWS V14.01,2013-01-29 23:01:00,
2013-01-29 18:06:00,36.7,35.9,30.03,NW,325,0.0,0.0,97,0.00,,---,0.00,VWS V14.01,2013-01-29 23:06:00,
2013-01-29 18:11:00,36.9,36.1,30.06,NW,324,0.0,0.0,97,0.00,,---,0.00,VWS V14.01,2013-01-29 23:11:00,
2013-01-29 18:16:00,37.4,36.6,30.06,NW,325,0.0,0.0,97,0.00,,---,0.00,VWS V14.01,2013-01-29 23:16:00,
2013-01-29 18:21:00,36.9,36.1,30.06,NW,324,0.0,0.0,97,0.00,,---,0.00,VWS V14.01,2013-01-29 23:21:00,
2013-01-29 18:26:00,36.9,36.1,30.03,NW,325,0.0,0.0,97,0.00,,---,0.00,VWS V14.01,2013-01-29 23:26:00,
2013-01-29 18:31:00,36.7,35.9,30.03,NW,324,0.0,0.0,97,0.00,,---,0.00,VWS V14.01,2013-01-29 23:31:00,
2013-01-29 18:36:00,36.7,35.9,30.03,NW,325,0.0,0.0,97,0.00,,---,0.00,VWS V14.01,2013-01-29 23:36:00,
2013-01-29 18:41:00,36.7,35.9,30.03,NW,324,0.0,0.0,97,0.00,,---,0.00,VWS V14.01,2013-01-29 23:41:00,
2013-01-29 18:46:00,36.9,36.1,30.03,NW,324,0.0,0.0,97,0.00,,---,0.00,VWS V14.01,2013-01-29 23:46:00,
2013-01-29 18:51:00,36.9,36.1,30.03,NW,325,0.0,0.0,97,0.00,,---,0.00,VWS V14.01,2013-01-29 23:51:00,
2013-01-29 18:56:00,37.0,36.3,30.06,NW,324,0.0,0.0,97,0.00,,---,0.00,VWS V14.01,2013-01-29 23:56:00,
2013-01-29 19:01:00,37.2,36.5,30.06,NW,324,0.0,0.0,97,0.00,,---,0.00,VWS V14.01,2013-01-30 00:01:00,
2013-01-29 19:06:00,37.4,36.6,30.06,NW,325,3.1,3.1,97,0.00,,---,0.00,VWS V14.01,2013-01-30 00:06:00,
2013-01-29 19:11:00,37.4,36.6,30.03,North,356,3.1,3.6,97,0.00,,---,0.00,VWS V14.01,2013-01-30 00:11:00,
2013-01-29 19:16:00,37.6,36.8,30.03,South,170,4.5,5.8,97,0.00,,---,0.00,VWS V14.01,2013-01-30 00:16:00,
2013-01-29 19:21:00,37.6,36.8,30.03,SSE,157,0.0,0.0,97,0.00,,---,0.00,VWS V14.01,2013-01-30 00:21:00,
2013-01-29 19:26:00,37.6,36.8,30.06,SSE,158,0.0,2.7,97,0.00,,---,0.00,VWS V14.01,2013-01-30 00:26:00,
2013-01-29 19:31:00,37.6,36.8,30.06,SSE,158,0.0,0.0,97,0.00,,---,0.00,VWS V14.01,2013-01-30 00:31:00,
2013-01-29 19:36:00,37.8,37.0,30.06,SSE,158,0.0,0.0,97,0.00,,---,0.00,VWS V14.01,2013-01-30 00:36:00,
2013-01-29 19:41:00,37.6,36.8,30.06,South,175,4.0,4.0,97,0.00,,---,0.00,VWS V14.01,2013-01-30 00:41:00,
2013-01-29 19:46:00,37.6,36.8,30.06,South,176,4.0,4.0,97,0.00,,---,0.00,VWS V14.01,2013-01-30 00:46:00,
2013-01-29 19:51:00,37.6,36.8,30.06,South,176,0.0,0.0,97,0.00,,---,0.00,VWS V14.01,2013-01-30 00:51:00,
2013-01-29 19:56:00,37.6,36.8,30.06,South,176,0.0,0.0,97,0.00,,---,0.00,VWS V14.01,2013-01-30 00:56:00,
2013-01-29 20:01:00,37.6,36.8,30.06,South,176,0.0,0.0,97,0.00,,---,0.00,VWS V14.01,2013-01-30 01:01:00,
2013-01-29 20:06:00,37.6,36.8,30.06,South,176,0.0,0.0,97,0.00,,---,0.00,VWS V14.01,2013-01-30 01:06:00,
2013-01-29 20:11:00,37.6,36.8,30.06,ESE,118,4.0,4.5,97,0.00,,---,0.00,VWS V14.01,2013-01-30 01:11:00,
2013-01-29 20:16:00,37.6,36.8,30.06,East,88,0.0,3.6,97,0.00,,---,0.00,VWS V14.01,2013-01-30 01:16:00,
2013-01-29 20:21:00,37.4,36.6,30.06,East,88,3.6,3.6,97,0.00,,---,0.00,VWS V14.01,2013-01-30 01:21:00,
2013-01-29 20:26:00,37.4,36.6,30.03,ESE,114,4.0,6.3,97,0.00,,---,0.00,VWS V14.01,2013-01-30 01:26:00,
2013-01-29 20:31:00,37.6,36.8,30.03,ESE,111,3.6,5.4,97,0.00,,---,0.00,VWS V14.01,2013-01-30 01:31:00,
2013-01-29 20:36:00,37.6,36.8,30.03,SE,128,4.9,4.9,97,0.00,,---,0.00,VWS V14.01,2013-01-30 01:36:00,
2013-01-29 20:41:00,37.8,37.0,30.03,ESE,117,4.0,6.3,97,0.00,,---,0.00,VWS V14.01,2013-01-30 01:41:00,
2013-01-29 20:46:00,37.8,37.0,30.03,SSE,148,4.9,5.8,97,0.00,,---,0.00,VWS V14.01,2013-01-30 01:46:00,
2013-01-29 20:51:00,37.8,37.0,30.03,SE,130,4.0,4.5,97,0.00,,---,0.00,VWS V14.01,2013-01-30 01:51:00,
2013-01-29 20:56:00,37.6,36.8,30.06,ESE,120,5.4,7.8,97,0.00,,---,0.00,VWS V14.01,2013-01-30 01:56:00,
2013-01-29 21:01:00,37.6,36.8,30.06,SSE,152,4.5,4.5,97,0.00,,---,0.00,VWS V14.01,2013-01-30 02:01:00,
2013-01-29 21:06:00,37.6,36.8,30.06,SE,128,5.4,5.8,97,0.00,,---,0.00,VWS V14.01,2013-01-30 02:06:00,
2013-01-29 21:11:00,37.6,36.8,30.06,SE,127,2.7,5.4,97,0.00,,---,0.00,VWS V14.01,2013-01-30 02:11:00,
2013-01-29 21:16:00,37.6,36.8,30.06,ESE,121,4.5,6.9,97,0.00,,---,0.00,VWS V14.01,2013-01-30 02:16:00,
2013-01-29 21:21:00,37.6,36.8,30.06,NE,53,4.5,5.8,97,0.00,,---,0.00,VWS V14.01,2013-01-30 02:21:00,
2013-01-29 21:26:00,37.4,36.6,30.03,ESE,105,4.9,6.3,97,0.00,,---,0.00,VWS V14.01,2013-01-30 02:26:00,
2013-01-29 21:31:00,37.4,36.6,30.03,SE,129,4.9,6.3,97,0.00,,---,0.00,VWS V14.01,2013-01-30 02:31:00,
2013-01-29 21:36:00,37.4,36.6,30.03,SE,145,3.1,4.9,97,0.00,,---,0.00,VWS V14.01,2013-01-30 02:36:00,
2013-01-29 21:41:00,37.4,36.6,30.03,SSE,165,4.5,5.8,97,0.00,,---,0.00,VWS V14.01,2013-01-30 02:41:00,
2013-01-29 21:46:00,37.6,36.8,30.03,SE,142,6.3,7.8,97,0.00,,---,0.00,VWS V14.01,2013-01-30 02:46:00,
2013-01-29 21:51:00,37.9,37.2,30.03,SE,136,4.0,6.3,97,0.00,,---,0.00,VWS V14.01,2013-01-30 02:51:00,
2013-01-29 21:56:00,38.1,37.3,30.03,SE,141,4.0,5.8,97,0.00,,---,0.00,VWS V14.01,2013-01-30 02:56:00,
2013-01-29 22:01:00,38.1,37.3,30.03,SE,124,5.4,5.8,97,0.00,,---,0.00,VWS V14.01,2013-01-30 03:01:00,
2013-01-29 22:06:00,38.1,37.3,30.03,South,174,3.1,6.7,97,0.00,,---,0.00,VWS V14.01,2013-01-30 03:06:00,
2013-01-29 22:11:00,38.1,37.3,30.03,South,180,6.7,6.7,97,0.00,,---,0.00,VWS V14.01,2013-01-30 03:11:00,
2013-01-29 22:16:00,38.1,37.3,30.03,SSE,147,7.8,7.8,97,0.00,,---,0.00,VWS V14.01,2013-01-30 03:16:00,
2013-01-29 22:21:00,38.1,37.3,30.03,SE,128,5.8,6.7,97,0.00,,---,0.00,VWS V14.01,2013-01-30 03:21:00,
2013-01-29 22:26:00,38.1,37.3,30.03,SE,128,5.8,6.3,97,0.00,,---,0.00,VWS V14.01,2013-01-30 03:26:00,
2013-01-29 22:31:00,37.9,37.2,30.03,ESE,104,4.5,5.8,97,0.00,,---,0.00,VWS V14.01,2013-01-30 03:31:00,
2013-01-29 22:36:00,37.9,37.2,30.03,ESE,114,4.5,6.3,97,0.00,,---,0.00,VWS V14.01,2013-01-30 03:36:00,
2013-01-29 22:41:00,37.9,37.2,30.03,ESE,103,6.3,8.7,97,0.00,,---,0.00,VWS V14.01,2013-01-30 03:41:00,
2013-01-29 22:46:00,37.9,37.2,30.03,ESE,118,7.8,7.8,97,0.00,,---,0.00,VWS V14.01,2013-01-30 03:46:00,
2013-01-29 22:51:00,38.1,37.3,30.03,ESE,117,3.1,4.5,97,0.00,,---,0.00,VWS V14.01,2013-01-30 03:51:00,
2013-01-29 22:56:00,38.1,37.3,30.03,SE,138,5.4,6.9,97,0.00,,---,0.00,VWS V14.01,2013-01-30 03:56:00,
2013-01-29 23:01:00,38.1,37.3,30.03,ESE,111,4.5,5.4,97,0.00,,---,0.00,VWS V14.01,2013-01-30 04:01:00,
2013-01-29 23:06:00,38.1,37.3,30.03,ESE,107,5.4,5.4,97,0.00,,---,0.00,VWS V14.01,2013-01-30 04:06:00,
2013-01-29 23:11:00,38.1,37.3,30.03,ESE,121,6.3,6.3,97,0.00,,---,0.00,VWS V14.01,2013-01-30 04:11:00,
2013-01-29 23:16:00,38.3,37.5,30.03,SE,136,4.5,4.5,97,0.00,,---,0.00,VWS V14.01,2013-01-30 04:16:00,
2013-01-29 23:21:00,38.3,37.5,30.03,East,96,7.4,7.4,97,0.00,,---,0.00,VWS V14.01,2013-01-30 04:21:00,
2013-01-29 23:26:00,38.5,37.7,30.03,ESE,113,4.9,5.4,97,0.00,,---,0.00,VWS V14.01,2013-01-30 04:26:00,
2013-01-29 23:31:00,38.3,37.5,30.03,ESE,116,6.7,6.7,97,0.00,,---,0.00,VWS V14.01,2013-01-30 04:31:00,
2013-01-29 23:36:00,38.3,37.5,30.03,SE,143,5.8,6.3,97,0.00,,---,0.00,VWS V14.01,2013-01-30 04:36:00,
2013-01-29 23:41:00,38.1,37.3,30.03,ESE,108,9.6,9.6,97,0.00,,---,0.00,VWS V14.01,2013-01-30 04:41:00,
2013-01-29 23:46:00,38.1,37.3,30.03,East,97,4.0,5.4,97,0.00,,---,0.00,VWS V14.01,2013-01-30 04:46:00,
2013-01-29 23:51:00,38.1,37.3,30.03,ESE,104,4.5,4.9,97,0.00,,---,0.00,VWS V14.01,2013-01-30 04:51:00,
2013-01-29 23:56:00,38.3,37.5,30.03,ESE,112,5.4,5.8,97,0.00,,---,0.00,VWS V14.01,2013-01-30 04:56:00,